Anderson, MO

11:31 AM CDT on October 02, 2014 (GMT -0500)
NonFedAWOS NEOSHO AIRPORT MO US SUPERAWOS | Change Station
CLOSE
Current Station
Personal Weather Station
Location: Neosho, MO
Elevation: 1254 ft
Nearby Weather Stations

Elev 1254 ft 36.81 °N, 94.39 °W | Updated 56 minutes ago

Overcast
Overcast
70 °F
Feels Like 70 °F
N
8
Wind Variable Wind from SSE
Gusts 0.0 mph

Today
High -- | Low -- °F
--% Chance of Precip.
Yesterday
High -- | Low -- °F
Precip. -- in
7:13 AM 6:59 PM
First Quarter, 60% visible
Pressure 29.77 in
Visibility 10.0 miles
Clouds Scattered Clouds 12000 ft
Dew Point 70 °F
Humidity 100%
Rainfall -999.00 in
Snow Depth Not available.
UV 4 out of 12
Pollen .50 out of 12
Air Quality Not available.
Flu Activity Not available.
METAR KGMJ 021615Z AUTO 14008G14KT 10SM SCT120 24/24 A2977 RMK AO2 LTG DSNT NE E AND SW

More Conditions Fewer Conditions

Pressure 29.77 in
Visibility 10.0 miles
Clouds Scattered Clouds 12000 ft
Dew Point 70 °F
Humidity 100%
Rainfall -999.00 in
Snow Depth Not available.
UV 4 out of 12
Pollen .50 out of 12
Air Quality Not available.
Flu Activity Not available.
METAR KGMJ 021615Z AUTO 14008G14KT 10SM SCT120 24/24 A2977 RMK AO2 LTG DSNT NE E AND SW

More Conditions Fewer Conditions

10-Day Weather Forecast

Almanac

Astronomy

Oct. 02, 2014 Rise Set
Actual Time 7:13 AM CDT 6:59 PM CDT
Civil Twilight 6:48 AM CDT 7:25 PM CDT
Nautical Twilight 6:18 AM CDT 7:55 PM CDT
Astronomical Twilight 5:47 AM CDT 8:25 PM CDT
Moon 2:58 PM CDT 12:40 AM CDT
Length of Visible Light 12h 37m
Length of Day
11h 45m
Tomorrow will be 2m 18s shorter.
First Quarter, 60% of the Moon is Illuminated
Today
First Quarter
Oct 8
Full
Oct 15
Last Quarter
Oct 23
New
Oct 30
First Quarter

Today's Extremes

State Highs State Lows

Community

WunderPhotos

Upload Photos

1,758,294 photos uploaded!

WunderBlogs® & News

Nearby

Snow Depth

Station Depth Elevation
No new snow has been reported.

Earthquake Activity

City Distance Mag. Time & Date
Parsons, Kansas 72 miles 3.0 7:33 PM CDT
2014-09-30
Minimum magnitude displayed is 2.5.

Coastal Water Temperatures

Place Temperature
No Stations Reporting

Nearby Weather Stations